Time;durP1;ratioP1;P1;durP2;ratioP2;P2;SDS_P1;SDS_P2;PMS_P1;PMS_P2;Temp;Humidity;BMP_temperature;BMP_pressure;BME280_temperature;BME280_humidity;BME280_pressure;Samples;Min_cycle;Max_cycle;Signal;HPM_P1;HPM_P2
2023/06/27 00:02:02;;;;;;;7.00;3.83;;;13.80;99.90;;;;;;6247403;23;20031;-60
2023/06/27 00:04:29;;;;;;;13.55;3.95;;;13.80;99.90;;;;;;6245558;23;20052;-60
2023/06/27 00:06:56;;;;;;;12.38;4.07;;;13.70;99.90;;;;;;6246353;23;20091;-60
2023/06/27 00:09:23;;;;;;;8.82;3.90;;;13.70;99.90;;;;;;6247475;23;20034;-61
2023/06/27 00:11:51;;;;;;;6.88;3.55;;;13.80;99.90;;;;;;6245366;23;20028;-61
2023/06/27 00:14:19;;;;;;;6.50;4.13;;;13.80;99.90;;;;;;6246680;23;20027;-61
2023/06/27 00:16:46;;;;;;;14.35;4.75;;;13.70;99.90;;;;;;6247224;23;20077;-61
2023/06/27 00:19:13;;;;;;;9.02;3.83;;;13.70;99.90;;;;;;6247414;23;20059;-61
2023/06/27 00:21:40;;;;;;;7.75;4.03;;;13.70;99.90;;;;;;6246414;23;20027;-61
2023/06/27 00:24:07;;;;;;;11.43;3.63;;;13.70;99.90;;;;;;6247034;23;20075;-61
2023/06/27 00:26:35;;;;;;;7.57;3.85;;;13.70;99.90;;;;;;6247081;23;20020;-60
2023/06/27 00:29:03;;;;;;;9.30;4.25;;;13.70;99.90;;;;;;6244407;23;20017;-60
2023/06/27 00:31:30;;;;;;;10.50;4.50;;;13.70;99.90;;;;;;6246876;23;20354;-60
2023/06/27 00:33:57;;;;;;;7.13;3.70;;;13.70;99.90;;;;;;6244504;23;20028;-60
2023/06/27 00:36:24;;;;;;;6.88;3.70;;;13.70;99.90;;;;;;6246835;22;20024;-60
2023/06/27 00:38:51;;;;;;;7.68;4.10;;;13.60;99.90;;;;;;6246792;22;20513;-60
2023/06/27 00:41:18;;;;;;;7.70;4.22;;;13.60;99.90;;;;;;6243976;23;20031;-59
2023/06/27 00:43:45;;;;;;;9.07;4.30;;;13.60;99.90;;;;;;6246980;23;20350;-59
2023/06/27 00:46:20;;;;;;;7.47;4.30;;;13.50;99.90;;;;;;6244984;23;20078;-59
2023/06/27 00:48:49;;;;;;;11.38;4.32;;;13.50;99.90;;;;;;6246308;23;20070;-60
2023/06/27 00:51:16;;;;;;;8.68;4.93;;;13.50;99.90;;;;;;6244898;23;20331;-60
2023/06/27 00:53:43;;;;;;;7.72;4.45;;;13.40;99.90;;;;;;6245069;23;20066;-60
2023/06/27 00:56:10;;;;;;;9.50;4.47;;;13.40;99.90;;;;;;6244258;23;20078;-60
2023/06/27 00:58:37;;;;;;;11.60;4.70;;;13.40;99.90;;;;;;6246547;23;20489;-60
2023/06/27 01:01:04;;;;;;;7.95;3.92;;;13.40;99.90;;;;;;6244988;23;20070;-59
2023/06/27 01:03:33;;;;;;;10.00;4.50;;;13.40;99.90;;;;;;6246139;23;20035;-60
2023/06/27 01:06:07;;;;;;;9.27;4.43;;;13.40;99.90;;;;;;6246683;23;20024;-59
2023/06/27 01:08:38;;;;;;;7.25;4.60;;;13.40;99.90;;;;;;6246773;23;20024;-59
2023/06/27 01:11:12;;;;;;;6.93;4.45;;;13.40;99.90;;;;;;6244282;23;20028;-59
2023/06/27 01:13:44;;;;;;;9.10;3.85;;;13.40;99.90;;;;;;6246762;23;20034;-59
2023/06/27 01:16:13;;;;;;;9.32;3.97;;;13.40;99.90;;;;;;6244339;23;20021;-60
2023/06/27 01:18:42;;;;;;;9.05;4.00;;;13.40;99.90;;;;;;6246584;23;20031;-60
2023/06/27 01:21:10;;;;;;;10.73;4.77;;;13.40;99.90;;;;;;6246754;23;20034;-60
2023/06/27 01:23:59;;;;;;;9.27;4.28;;;13.40;99.90;;;;;;6244045;23;20032;-60
2023/06/27 01:26:27;;;;;;;6.05;3.80;;;13.50;99.90;;;;;;6239612;23;20028;-60
2023/06/27 01:28:54;;;;;;;7.93;4.07;;;13.40;99.90;;;;;;6246459;23;20016;-60
2023/06/27 01:31:27;;;;;;;7.05;3.70;;;13.40;99.90;;;;;;6244046;23;20021;-61
2023/06/27 01:34:00;;;;;;;6.07;3.83;;;13.40;99.90;;;;;;6246271;23;20031;-60
2023/06/27 01:36:34;;;;;;;8.88;3.70;;;13.50;99.90;;;;;;6244673;23;20055;-60
2023/06/27 01:39:07;;;;;;;5.53;3.80;;;13.40;99.90;;;;;;6245794;23;20022;-61
2023/06/27 01:41:38;;;;;;;6.15;3.83;;;13.50;99.90;;;;;;6245736;23;20497;-61
2023/06/27 01:44:06;;;;;;;;;;;13.50;99.90;;;;;;6245047;23;20086;-60
2023/06/27 01:46:34;;;;;;;7.35;3.47;;;13.50;99.90;;;;;;6246004;23;19916;-61
2023/06/27 01:49:02;;;;;;;8.55;3.42;;;13.10;99.90;;;;;;6246156;22;20075;-60
2023/06/27 01:51:30;;;;;;;10.55;4.03;;;13.40;99.90;;;;;;6243646;23;20094;-59
2023/06/27 01:53:57;;;;;;;7.30;3.60;;;13.50;99.90;;;;;;6246196;23;20237;-60
2023/06/27 01:56:25;;;;;;;7.32;3.47;;;13.50;99.90;;;;;;6246322;23;20043;-59
2023/06/27 01:58:52;;;;;;;13.98;3.78;;;13.50;99.90;;;;;;6243577;23;20050;-59
2023/06/27 02:01:19;;;;;;;6.82;3.30;;;13.50;99.90;;;;;;6246142;23;20028;-59
2023/06/27 02:03:46;;;;;;;10.50;3.83;;;13.50;99.90;;;;;;6245679;23;20446;-60
2023/06/27 02:06:15;;;;;;;8.27;3.83;;;13.50;99.90;;;;;;6245430;23;20031;-60
2023/06/27 02:08:42;;;;;;;6.63;3.83;;;13.50;99.90;;;;;;6246002;23;20100;-60
2023/06/27 02:11:09;;;;;;;6.00;3.40;;;13.60;99.90;;;;;;6246094;22;20024;-60
2023/06/27 02:13:39;;;;;;;8.45;4.47;;;13.60;99.90;;;;;;6245402;23;20389;-60
2023/06/27 02:16:06;;;;;;;4.95;3.70;;;13.60;99.90;;;;;;6246456;23;20019;-59
2023/06/27 02:18:33;;;;;;;5.82;3.20;;;13.60;99.90;;;;;;6245667;23;20024;-59
2023/06/27 02:21:00;;;;;;;6.97;4.00;;;13.70;99.90;;;;;;6243493;23;20020;-61
2023/06/27 02:23:27;;;;;;;7.35;3.83;;;13.70;99.90;;;;;;6245848;23;20056;-60
2023/06/27 02:25:54;;;;;;;8.18;3.97;;;13.70;99.90;;;;;;6244012;23;20020;-60
2023/06/27 02:28:21;;;;;;;6.53;3.35;;;13.70;99.90;;;;;;6243300;23;20349;-60
2023/06/27 02:30:49;;;;;;;6.00;4.00;;;14.00;99.90;;;;;;6245867;23;20024;-60
2023/06/27 02:33:16;;;;;;;8.15;3.47;;;13.70;99.90;;;;;;6245837;22;20020;-60
2023/06/27 02:35:43;;;;;;;4.70;3.03;;;13.70;99.90;;;;;;6243386;23;20020;-60
2023/06/27 02:38:10;;;;;;;5.93;3.50;;;13.70;99.90;;;;;;6243800;23;20020;-60
2023/06/27 02:40:37;;;;;;;8.60;3.38;;;13.80;99.90;;;;;;6244994;23;20031;-60
2023/06/27 02:43:04;;;;;;;7.25;3.40;;;13.80;99.90;;;;;;6245113;22;20028;-60
2023/06/27 02:45:31;;;;;;;6.40;3.55;;;13.80;99.90;;;;;;6245877;22;20352;-60
2023/06/27 02:47:59;;;;;;;6.50;3.58;;;13.80;99.90;;;;;;6244789;23;20473;-60
2023/06/27 02:50:26;;;;;;;7.65;3.53;;;13.80;99.90;;;;;;6245693;23;20024;-60
2023/06/27 02:52:53;;;;;;;8.80;3.72;;;13.80;99.90;;;;;;6245077;23;20523;-60
2023/06/27 02:55:20;;;;;;;8.38;3.88;;;13.80;99.90;;;;;;6244556;23;20024;-60
2023/06/27 02:57:47;;;;;;;10.15;4.13;;;13.80;99.90;;;;;;6245426;23;20020;-60
2023/06/27 03:00:15;;;;;;;5.78;3.63;;;13.90;99.90;;;;;;6243561;23;20024;-59
2023/06/27 03:02:42;;;;;;;5.55;3.47;;;13.90;99.90;;;;;;6244011;23;20025;-60
2023/06/27 03:05:10;;;;;;;5.35;3.58;;;13.90;99.90;;;;;;6245438;22;20064;-60
2023/06/27 03:07:37;;;;;;;6.20;3.45;;;13.90;99.90;;;;;;6242758;23;20020;-60
2023/06/27 03:10:04;;;;;;;6.38;4.15;;;13.90;99.90;;;;;;6244525;23;20020;-60
2023/06/27 03:12:32;;;;;;;7.78;3.95;;;13.90;99.90;;;;;;6243356;23;20070;-61
2023/06/27 03:15:03;;;;;;;5.68;3.50;;;13.90;99.90;;;;;;6243556;23;20034;-60
2023/06/27 03:17:30;;;;;;;8.68;4.00;;;13.90;99.90;;;;;;6244894;23;20020;-60
2023/06/27 03:19:57;;;;;;;6.22;3.58;;;13.90;99.90;;;;;;6243617;23;20061;-60
2023/06/27 03:22:26;;;;;;;7.78;3.60;;;13.90;99.90;;;;;;6245458;23;20020;-61
2023/06/27 03:24:53;;;;;;;6.07;3.75;;;13.90;99.90;;;;;;6242987;23;20382;-60
2023/06/27 03:27:22;;;;;;;8.00;3.50;;;13.90;99.90;;;;;;6243699;23;20513;-60
2023/06/27 03:29:49;;;;;;;8.10;3.13;;;13.90;99.90;;;;;;6244206;23;20031;-60
2023/06/27 03:32:16;;;;;;;6.03;3.38;;;13.80;99.90;;;;;;6245555;23;20020;-61
2023/06/27 03:34:43;;;;;;;8.93;3.65;;;13.80;99.90;;;;;;6243518;23;20085;-60
2023/06/27 03:37:10;;;;;;;10.38;3.83;;;13.80;99.90;;;;;;6245016;23;20412;-60
2023/06/27 03:39:39;;;;;;;4.90;3.28;;;13.90;99.90;;;;;;6243497;23;20066;-60
2023/06/27 03:42:07;;;;;;;7.10;3.35;;;13.90;99.90;;;;;;6245084;23;20149;-60
2023/06/27 03:44:34;;;;;;;4.68;2.28;;;13.80;99.90;;;;;;6239669;23;20395;-61
2023/06/27 03:47:01;;;;;;;6.78;2.70;;;14.30;99.90;;;;;;6242371;23;20024;-61
2023/06/27 03:49:28;;;;;;;9.77;3.78;;;14.80;99.90;;;;;;6241572;23;20016;-61
2023/06/27 03:51:55;;;;;;;6.60;3.08;;;15.20;99.90;;;;;;6243876;22;20464;-61
2023/06/27 03:54:22;;;;;;;5.50;3.17;;;15.40;99.90;;;;;;6243396;23;20028;-61
2023/06/27 03:56:51;;;;;;;4.70;2.83;;;15.60;99.90;;;;;;6242886;23;20028;-61
2023/06/27 03:59:18;;;;;;;5.90;2.58;;;15.90;99.90;;;;;;6242966;23;20024;-61
2023/06/27 04:01:45;;;;;;;7.78;2.78;;;16.10;99.90;;;;;;6244705;23;20024;-60
2023/06/27 04:04:12;;;;;;;9.57;3.10;;;16.20;99.90;;;;;;6243575;22;20034;-63
2023/06/27 04:06:38;;;;;;;6.05;3.25;;;16.40;99.90;;;;;;6243527;23;20358;-64
2023/06/27 04:09:07;;;;;;;8.00;2.38;;;16.50;99.90;;;;;;6242116;23;20023;-64
2023/06/27 04:11:34;;;;;;;4.50;2.83;;;16.70;99.90;;;;;;6244446;23;20020;-64
2023/06/27 04:14:03;;;;;;;6.22;2.53;;;16.60;99.90;;;;;;6241223;23;20024;-64
2023/06/27 04:16:30;;;;;;;6.45;3.08;;;16.70;99.90;;;;;;6241860;23;20055;-60
2023/06/27 04:18:57;;;;;;;10.32;2.90;;;16.70;99.90;;;;;;6243203;23;20035;-60
2023/06/27 04:21:24;;;;;;;6.05;2.40;;;16.80;99.90;;;;;;6242208;23;20028;-60
2023/06/27 04:23:53;;;;;;;4.70;2.35;;;16.70;99.90;;;;;;6242283;23;20024;-61
2023/06/27 04:26:20;;;;;;;8.05;2.72;;;16.80;99.90;;;;;;6242720;23;20461;-62
2023/06/27 04:28:48;;;;;;;7.07;2.75;;;16.90;99.90;;;;;;6243727;22;20024;-61
2023/06/27 04:31:17;;;;;;;6.18;2.92;;;17.00;99.90;;;;;;6243342;23;20024;-61
2023/06/27 04:33:44;;;;;;;13.00;2.28;;;17.00;99.90;;;;;;6243447;23;20031;-65
2023/06/27 04:36:15;;;;;;;8.85;3.17;;;17.00;99.90;;;;;;6243826;23;20450;-65
2023/06/27 04:38:43;;;;;;;7.70;2.42;;;17.10;99.90;;;;;;6243401;23;20056;-65
2023/06/27 04:41:11;;;;;;;10.05;2.67;;;17.00;99.90;;;;;;6244135;23;20027;-61
2023/06/27 04:43:39;;;;;;;6.32;2.78;;;17.00;99.90;;;;;;6246220;23;20479;-61
2023/06/27 04:46:06;;;;;;;5.28;2.30;;;17.10;99.90;;;;;;6243334;23;20099;-61
2023/06/27 04:48:35;;;;;;;5.28;2.58;;;16.90;99.90;;;;;;6243508;23;20490;-61
2023/06/27 04:51:03;;;;;;;7.40;2.47;;;17.00;99.90;;;;;;6245531;23;20055;-61
2023/06/27 04:53:30;;;;;;;5.85;2.78;;;17.00;99.90;;;;;;6245739;23;20028;-61
2023/06/27 04:55:57;;;;;;;7.10;2.08;;;17.20;99.90;;;;;;6244151;23;20392;-61
2023/06/27 04:58:24;;;;;;;6.43;2.63;;;17.10;99.90;;;;;;6244124;23;20016;-60
2023/06/27 05:00:52;;;;;;;8.63;3.03;;;17.20;99.90;;;;;;6245335;23;20043;-60
2023/06/27 05:03:20;;;;;;;13.32;2.90;;;17.40;99.90;;;;;;6242764;23;20499;-60
2023/06/27 05:05:49;;;;;;;10.38;2.63;;;17.50;99.90;;;;;;6245137;22;20024;-61
2023/06/27 05:08:16;;;;;;;14.38;2.70;;;17.80;99.90;;;;;;6243662;23;20525;-62
2023/06/27 05:10:43;;;;;;;8.82;2.72;;;17.90;99.90;;;;;;6245368;23;20028;-62
2023/06/27 05:13:10;;;;;;;10.25;3.17;;;18.00;99.90;;;;;;6243106;23;20070;-61
2023/06/27 05:15:37;;;;;;;10.60;2.55;;;18.10;99.90;;;;;;6244563;23;20027;-61
2023/06/27 05:18:24;;;;;;;9.50;2.78;;;18.30;99.90;;;;;;6245486;23;20028;-61
2023/06/27 05:20:52;;;;;;;8.50;2.88;;;18.30;99.90;;;;;;6243480;23;20090;-61
2023/06/27 05:23:20;;;;;;;5.25;2.17;;;18.30;99.90;;;;;;6244574;23;20381;-60
2023/06/27 05:25:48;;;;;;;8.10;2.92;;;18.50;99.90;;;;;;6243267;23;20524;-60
2023/06/27 05:28:15;;;;;;;16.42;2.70;;;18.60;99.90;;;;;;6244992;23;20051;-61
2023/06/27 05:30:42;;;;;;;9.65;2.53;;;18.70;99.90;;;;;;6242783;23;20028;-62
2023/06/27 05:33:09;;;;;;;7.47;2.42;;;18.90;99.90;;;;;;6244465;23;20470;-62
2023/06/27 05:35:36;;;;;;;8.82;2.53;;;18.90;99.90;;;;;;6245363;22;20020;-62
2023/06/27 05:38:06;;;;;;;6.97;2.95;;;19.10;99.90;;;;;;6243141;22;20020;-60
2023/06/27 05:40:33;;;;;;;7.85;2.40;;;19.00;99.90;;;;;;6240782;23;20024;-60
2023/06/27 05:43:00;;;;;;;5.80;2.20;;;19.00;99.90;;;;;;6245687;23;20082;-61
2023/06/27 05:45:27;;;;;;;6.30;2.30;;;18.90;99.90;;;;;;6243559;23;20043;-61
2023/06/27 05:47:54;;;;;;;12.23;2.67;;;18.90;99.90;;;;;;6246428;22;20031;-61
2023/06/27 05:50:21;;;;;;;8.95;2.53;;;19.00;99.90;;;;;;6243492;23;20085;-62
2023/06/27 05:52:48;;;;;;;11.50;2.45;;;19.10;99.90;;;;;;6244011;23;20028;-62
2023/06/27 05:55:16;;;;;;;8.95;2.60;;;19.20;99.90;;;;;;6244266;23;20074;-60
2023/06/27 05:57:43;;;;;;;7.18;2.58;;;19.30;99.90;;;;;;6245569;23;20085;-61
2023/06/27 06:00:13;;;;;;;16.20;2.55;;;19.40;99.90;;;;;;6245877;23;20038;-61
2023/06/27 06:02:42;;;;;;;8.10;2.30;;;19.60;99.90;;;;;;6244516;23;20038;-62
2023/06/27 06:05:11;;;;;;;10.83;2.73;;;19.70;99.90;;;;;;6245489;23;20027;-61
2023/06/27 06:07:43;;;;;;;8.52;2.30;;;19.90;99.90;;;;;;6246273;23;20089;-61
2023/06/27 06:10:11;;;;;;;19.10;2.50;;;20.00;99.90;;;;;;6244135;23;20027;-61
2023/06/27 06:12:39;;;;;;;9.52;1.95;;;20.00;99.90;;;;;;6245337;23;20020;-61
2023/06/27 06:15:07;;;;;;;5.15;1.60;;;20.20;99.90;;;;;;6246005;23;20034;-61
2023/06/27 06:17:34;;;;;;;7.10;2.05;;;20.20;99.90;;;;;;6246233;22;20020;-61
2023/06/27 06:20:01;;;;;;;6.07;1.63;;;20.40;99.90;;;;;;6245187;23;20100;-61
2023/06/27 06:22:28;;;;;;;5.50;1.80;;;20.50;99.90;;;;;;6245861;23;20027;-62
2023/06/27 06:24:55;;;;;;;7.45;1.83;;;20.70;99.90;;;;;;6245565;23;20465;-61
2023/06/27 06:27:22;;;;;;;5.20;1.77;;;20.90;99.90;;;;;;6245090;23;20024;-61
2023/06/27 06:29:50;;;;;;;11.00;1.95;;;21.10;99.90;;;;;;6244017;23;20028;-61
2023/06/27 06:32:17;;;;;;;8.45;2.38;;;21.30;99.90;;;;;;6245946;23;20102;-61
2023/06/27 06:34:44;;;;;;;7.32;1.67;;;21.40;99.90;;;;;;6245148;23;20030;-61
2023/06/27 06:37:11;;;;;;;5.88;1.50;;;21.60;99.90;;;;;;6245804;23;20390;-61
2023/06/27 06:39:38;;;;;;;5.40;1.80;;;21.90;99.90;;;;;;6245202;23;20063;-62
2023/06/27 06:42:05;;;;;;;4.55;1.73;;;22.20;99.90;;;;;;6243683;23;20051;-61
2023/06/27 06:44:32;;;;;;;8.27;2.13;;;22.30;99.90;;;;;;6245550;23;20024;-61
2023/06/27 06:47:01;;;;;;;9.20;2.08;;;22.50;99.90;;;;;;6245054;23;20020;-62
2023/06/27 06:49:27;;;;;;;7.10;1.77;;;22.80;99.90;;;;;;6245818;23;20024;-61
2023/06/27 06:51:54;;;;;;;5.05;1.40;;;22.80;99.90;;;;;;6245795;23;20349;-60
2023/06/27 06:54:21;;;;;;;7.53;1.27;;;22.90;99.90;;;;;;6245011;23;20031;-60
2023/06/27 06:56:49;;;;;;;9.60;2.13;;;23.00;98.90;;;;;;6243744;23;20028;-61
2023/06/27 06:59:16;;;;;;;3.78;1.27;;;23.10;98.20;;;;;;6245941;22;20020;-61
2023/06/27 07:01:43;;;;;;;4.32;1.92;;;23.50;97.70;;;;;;6243026;23;20480;-61
2023/06/27 07:04:11;;;;;;;9.07;1.38;;;23.70;97.00;;;;;;6245661;23;20113;-61
2023/06/27 07:06:38;;;;;;;7.95;1.23;;;23.60;95.40;;;;;;6245275;22;20024;-61
2023/06/27 07:09:05;;;;;;;4.72;1.77;;;23.80;95.30;;;;;;6242987;23;20531;-61
2023/06/27 07:11:32;;;;;;;3.85;1.85;;;23.80;94.70;;;;;;6245543;22;20023;-62
2023/06/27 07:13:59;;;;;;;5.13;1.70;;;24.20;94.50;;;;;;6245707;23;20027;-61
2023/06/27 07:16:27;;;;;;;8.02;1.40;;;24.50;93.60;;;;;;6242773;23;20063;-61
2023/06/27 07:18:54;;;;;;;5.65;1.70;;;24.40;93.80;;;;;;6245649;23;20346;-61
2023/06/27 07:21:22;;;;;;;6.95;1.10;;;24.40;93.40;;;;;;6243570;23;20032;-61
2023/06/27 07:23:49;;;;;;;4.78;1.52;;;24.20;92.90;;;;;;6244476;23;20020;-61
2023/06/27 07:26:16;;;;;;;5.97;1.40;;;24.10;93.30;;;;;;6243563;23;20414;-61
2023/06/27 07:28:43;;;;;;;5.65;1.23;;;24.00;93.40;;;;;;6243683;23;20028;-61
2023/06/27 07:31:10;;;;;;;6.25;1.60;;;23.70;93.50;;;;;;6242688;23;20078;-61
2023/06/27 07:33:37;;;;;;;4.45;1.45;;;23.60;93.60;;;;;;6243667;23;20028;-60
2023/06/27 07:36:04;;;;;;;6.05;1.63;;;23.50;93.20;;;;;;6244262;23;20458;-61
2023/06/27 07:38:32;;;;;;;8.05;1.63;;;23.50;93.30;;;;;;6243703;23;20024;-61
2023/06/27 07:40:59;;;;;;;5.85;1.70;;;23.50;93.30;;;;;;6245154;23;20020;-62
2023/06/27 07:43:26;;;;;;;9.38;1.77;;;23.50;93.40;;;;;;6244819;23;20020;-61
2023/06/27 07:45:53;;;;;;;6.72;1.73;;;24.10;93.50;;;;;;6245461;23;20443;-61
2023/06/27 07:48:20;;;;;;;6.05;1.50;;;24.50;93.20;;;;;;6245235;23;20385;-63
2023/06/27 07:50:47;;;;;;;4.57;1.02;;;24.80;92.30;;;;;;6242765;23;20393;-61
2023/06/27 07:53:14;;;;;;;4.13;1.25;;;25.50;91.80;;;;;;6245505;23;20090;-61
2023/06/27 07:55:42;;;;;;;5.40;0.90;;;26.10;91.00;;;;;;6245423;23;20453;-62
2023/06/27 07:58:09;;;;;;;6.25;1.20;;;26.60;90.00;;;;;;6244592;22;20033;-61
2023/06/27 08:00:36;;;;;;;3.55;1.23;;;26.30;89.60;;;;;;6244827;23;20462;-61
2023/06/27 08:03:03;;;;;;;2.70;1.08;;;26.40;88.00;;;;;;6244499;23;20024;-61
2023/06/27 08:05:34;;;;;;;6.75;1.00;;;26.70;87.20;;;;;;6244596;22;20024;-61
2023/06/27 08:08:01;;;;;;;3.75;1.20;;;26.50;84.80;;;;;;6245432;23;20024;-62
2023/06/27 08:10:28;;;;;;;7.32;1.20;;;26.60;85.70;;;;;;6245345;23;20073;-62
2023/06/27 08:12:57;;;;;;;4.78;1.38;;;26.70;85.40;;;;;;6242801;23;20055;-62
2023/06/27 08:15:24;;;;;;;7.68;1.60;;;26.00;83.40;;;;;;6245762;23;20066;-62
2023/06/27 08:17:50;;;;;;;4.93;1.30;;;25.70;85.20;;;;;;6247326;23;20028;-62
2023/06/27 08:20:18;;;;;;;5.43;1.23;;;26.10;86.00;;;;;;6246557;23;20020;-62
2023/06/27 08:22:45;;;;;;;2.58;1.10;;;26.30;85.40;;;;;;6247312;23;20095;-62
2023/06/27 08:25:12;;;;;;;6.60;1.30;;;26.30;84.80;;;;;;6244564;23;20024;-60
2023/06/27 08:27:39;;;;;;;6.57;1.95;;;25.90;83.60;;;;;;6246974;23;20024;-61
2023/06/27 08:30:09;;;;;;;3.20;1.10;;;26.10;85.10;;;;;;6246844;23;20100;-61
2023/06/27 08:32:36;;;;;;;3.35;1.00;;;26.00;83.20;;;;;;6246161;22;20027;-61
2023/06/27 08:35:05;;;;;;;2.38;1.08;;;25.70;83.50;;;;;;6246992;22;20031;-61
2023/06/27 08:37:33;;;;;;;3.60;0.90;;;25.10;84.80;;;;;;6245346;23;20028;-61
2023/06/27 08:40:00;;;;;;;6.03;1.60;;;25.50;85.70;;;;;;6246485;23;20024;-61
2023/06/27 08:42:31;;;;;;;4.32;1.20;;;25.90;84.60;;;;;;6245083;23;20465;-61
2023/06/27 08:44:58;;;;;;;3.60;1.00;;;25.70;84.10;;;;;;6245195;23;20028;-61
2023/06/27 08:47:28;;;;;;;3.38;1.15;;;26.00;84.50;;;;;;6244255;23;20450;-61
2023/06/27 08:50:01;;;;;;;7.57;1.60;;;25.60;84.10;;;;;;6246978;22;20345;-61
2023/06/27 08:52:29;;;;;;;5.63;1.40;;;25.40;85.00;;;;;;6247089;23;20020;-62
2023/06/27 08:54:58;;;;;;;12.98;1.40;;;25.50;86.00;;;;;;6246227;23;20059;-61
2023/06/27 08:57:30;;;;;;;6.22;1.40;;;25.20;85.70;;;;;;6246462;23;20462;-61
2023/06/27 09:00:04;;;;;;;3.90;1.50;;;25.30;85.20;;;;;;6247009;23;20024;-61
2023/06/27 09:02:33;;;;;;;4.03;0.90;;;25.90;85.30;;;;;;6244309;23;20024;-62
2023/06/27 09:05:01;;;;;;;3.97;1.40;;;26.50;83.60;;;;;;6246914;23;20024;-62
2023/06/27 09:07:28;;;;;;;5.38;1.05;;;26.70;83.80;;;;;;6245991;23;20020;-62
2023/06/27 09:09:57;;;;;;;6.75;1.20;;;26.90;81.30;;;;;;6244947;23;20020;-62
2023/06/27 09:12:25;;;;;;;4.85;1.05;;;26.90;81.00;;;;;;6246825;22;20031;-62
2023/06/27 09:14:52;;;;;;;3.70;1.27;;;26.90;81.10;;;;;;6244167;23;20032;-62
2023/06/27 09:17:19;;;;;;;2.70;1.50;;;27.30;80.00;;;;;;6246579;22;20126;-62
2023/06/27 09:19:47;;;;;;;4.68;1.30;;;27.30;78.80;;;;;;6246712;23;20078;-61
2023/06/27 09:22:15;;;;;;;6.15;1.17;;;27.30;78.20;;;;;;6243892;23;20480;-62
2023/06/27 09:24:42;;;;;;;5.78;1.25;;;27.70;79.20;;;;;;6246662;23;20024;-62
2023/06/27 09:27:29;;;;;;;5.68;0.90;;;27.40;80.00;;;;;;6246578;23;20031;-62
2023/06/27 09:30:01;;;;;;;7.88;1.40;;;26.90;79.20;;;;;;6244077;23;20024;-61
2023/06/27 09:32:27;;;;;;;3.67;1.20;;;27.00;80.00;;;;;;6246632;23;20024;-61
2023/06/27 09:34:56;;;;;;;6.35;1.25;;;27.60;80.20;;;;;;6244879;23;20454;-62
2023/06/27 09:37:30;;;;;;;3.15;0.90;;;28.30;79.60;;;;;;6245464;23;20032;-61
2023/06/27 09:39:57;;;;;;;6.88;1.80;;;28.30;77.30;;;;;;6244840;23;20043;-61
2023/06/27 09:42:24;;;;;;;7.68;1.33;;;28.10;78.00;;;;;;6244308;23;20035;-62
2023/06/27 09:44:51;;;;;;;2.53;0.73;;;27.90;78.40;;;;;;6246265;22;20024;-62
2023/06/27 09:47:18;;;;;;;2.53;0.80;;;27.70;78.90;;;;;;6246097;23;20051;-62
2023/06/27 09:49:45;;;;;;;4.43;1.27;;;27.50;78.60;;;;;;6245734;23;20027;-63
2023/06/27 09:52:14;;;;;;;3.25;1.08;;;27.40;77.80;;;;;;6244670;23;20038;-62
2023/06/27 09:54:47;;;;;;;5.13;1.20;;;27.50;77.90;;;;;;6246411;23;20027;-62
2023/06/27 09:57:16;;;;;;;4.97;1.20;;;27.30;77.90;;;;;;6245722;23;20031;-62
2023/06/27 09:59:43;;;;;;;3.45;1.10;;;27.20;79.10;;;;;;6246286;23;20046;-61
2023/06/27 10:02:14;;;;;;;4.38;1.15;;;26.80;79.70;;;;;;6246120;23;20462;-62
2023/06/27 10:04:41;;;;;;;3.75;1.00;;;26.70;79.30;;;;;;6243617;23;20026;-62
2023/06/27 10:07:09;;;;;;;5.43;1.50;;;26.30;78.60;;;;;;6244574;23;20462;-62
2023/06/27 10:09:38;;;;;;;6.28;1.33;;;26.50;78.80;;;;;;6246225;23;20040;-62
2023/06/27 10:12:06;;;;;;;;;;;26.40;78.50;;;;;;6244190;23;20095;-62
2023/06/27 10:14:33;;;;;;;2.88;1.05;;;26.60;79.30;;;;;;6244465;23;19926;-62
2023/06/27 10:17:02;;;;;;;7.80;1.52;;;26.50;79.40;;;;;;6246344;23;20067;-62
2023/06/27 10:19:32;;;;;;;4.93;1.20;;;26.80;79.80;;;;;;6245521;23;20385;-62
2023/06/27 10:22:00;;;;;;;4.95;1.10;;;26.80;79.10;;;;;;6244254;23;20425;-62
2023/06/27 10:24:29;;;;;;;4.22;1.30;;;26.80;79.30;;;;;;6244146;23;20055;-63
2023/06/27 10:26:59;;;;;;;6.20;1.02;;;26.90;78.90;;;;;;6245153;23;20021;-62
2023/06/27 10:29:32;;;;;;;6.32;1.20;;;26.80;78.30;;;;;;6244563;23;20031;-61
2023/06/27 10:31:59;;;;;;;5.03;1.10;;;27.30;79.20;;;;;;6244967;23;20568;-61
2023/06/27 10:34:28;;;;;;;4.22;1.10;;;27.80;79.10;;;;;;6244586;23;20516;-62
2023/06/27 10:37:00;;;;;;;4.63;0.95;;;27.80;78.10;;;;;;6245705;23;20466;-62
2023/06/27 10:39:31;;;;;;;3.45;1.25;;;28.40;78.40;;;;;;6242965;23;20373;-62
2023/06/27 10:42:27;;;;;;;4.88;1.38;;;28.50;77.00;;;;;;6245670;23;20024;-62
2023/06/27 10:45:02;;;;;;;4.00;1.55;;;28.80;77.60;;;;;;6245600;23;20031;-62
2023/06/27 10:47:34;;;;;;;2.88;1.13;;;28.60;76.40;;;;;;6245229;22;20035;-62
2023/06/27 10:50:07;;;;;;;6.50;1.63;;;28.30;77.30;;;;;;6243732;23;20034;-62
2023/06/27 10:52:34;;;;;;;4.55;1.10;;;28.40;76.90;;;;;;6244094;23;20035;-62
2023/06/27 10:55:23;;;;;;;6.45;1.10;;;28.20;77.10;;;;;;6244786;23;20054;-62
2023/06/27 10:58:02;;;;;;;5.95;1.08;;;28.90;76.10;;;;;;6243996;23;20020;-62
2023/06/27 11:00:32;;;;;;;6.03;1.40;;;29.00;76.40;;;;;;6243250;23;20027;-62
2023/06/27 11:03:03;;;;;;;4.43;1.17;;;28.60;76.90;;;;;;6245812;23;20024;-62
2023/06/27 11:05:47;;;;;;;5.15;1.20;;;28.60;76.70;;;;;;6245627;23;20087;-62
2023/06/27 11:08:16;;;;;;;4.90;1.20;;;28.50;75.00;;;;;;6242371;23;20028;-63
2023/06/27 11:11:02;;;;;;;4.28;1.05;;;29.00;76.50;;;;;;6245379;23;20020;-62
2023/06/27 11:13:33;;;;;;;4.43;0.88;;;28.80;75.90;;;;;;6245746;23;20028;-62
2023/06/27 11:16:01;;;;;;;2.85;1.13;;;29.20;76.50;;;;;;6245078;23;20346;-62
2023/06/27 11:18:29;;;;;;;4.85;1.15;;;29.40;75.30;;;;;;6243749;23;20062;-62
2023/06/27 11:20:57;;;;;;;6.38;1.92;;;29.40;74.70;;;;;;6242946;23;20342;-63
2023/06/27 11:23:25;;;;;;;3.47;1.00;;;29.00;74.50;;;;;;6245528;23;20032;-61
2023/06/27 11:25:53;;;;;;;8.15;1.23;;;29.30;74.80;;;;;;6245710;23;20020;-62
2023/06/27 11:28:22;;;;;;;4.10;1.30;;;29.00;73.70;;;;;;6244475;23;20030;-63
2023/06/27 11:30:57;;;;;;;2.90;1.08;;;28.60;75.00;;;;;;6245460;23;20016;-62
2023/06/27 11:33:25;;;;;;;4.57;1.25;;;28.20;73.70;;;;;;6245639;22;20400;-62
2023/06/27 11:35:52;;;;;;;3.42;0.98;;;27.40;74.30;;;;;;6244467;23;20024;-62
2023/06/27 11:38:19;;;;;;;4.15;1.33;;;27.20;76.30;;;;;;6245460;23;20024;-63
2023/06/27 11:40:50;;;;;;;8.48;1.50;;;26.70;76.10;;;;;;6245042;23;20035;-62
2023/06/27 11:43:18;;;;;;;7.13;1.27;;;27.00;75.50;;;;;;6244218;22;20100;-62
2023/06/27 11:45:46;;;;;;;6.82;1.85;;;26.70;76.30;;;;;;6245328;23;20024;-66
2023/06/27 11:48:14;;;;;;;6.03;1.05;;;26.30;78.00;;;;;;6245404;23;20024;-66
2023/06/27 11:50:57;;;;;;;6.03;1.50;;;26.10;78.10;;;;;;6243414;23;20439;-62
2023/06/27 11:53:26;;;;;;;6.38;1.58;;;25.80;79.80;;;;;;6247349;23;20552;-62
2023/06/27 11:55:53;;;;;;;11.05;2.38;;;25.60;81.20;;;;;;6247619;23;20099;-62
2023/06/27 11:58:29;;;;;;;5.68;1.83;;;25.60;81.60;;;;;;6244714;23;20020;-62
2023/06/27 12:00:56;;;;;;;8.30;1.45;;;25.70;80.80;;;;;;6247396;23;20073;-62
2023/06/27 12:03:29;;;;;;;6.45;1.67;;;25.70;78.40;;;;;;6246742;23;20055;-62
2023/06/27 12:05:57;;;;;;;5.80;1.25;;;25.60;77.50;;;;;;6245502;23;20094;-62
2023/06/27 12:08:29;;;;;;;9.88;1.40;;;25.60;78.70;;;;;;6247802;23;20020;-62
2023/06/27 12:11:00;;;;;;;4.93;1.65;;;25.50;81.10;;;;;;6244638;23;20152;-62
2023/06/27 12:13:33;;;;;;;6.40;1.50;;;25.30;80.60;;;;;;6247448;23;20087;-61
2023/06/27 12:16:00;;;;;;;5.88;1.30;;;25.50;80.40;;;;;;6247347;23;20024;-62
2023/06/27 12:18:30;;;;;;;4.97;1.10;;;25.40;80.50;;;;;;6246647;23;20028;-62
2023/06/27 12:20:58;;;;;;;7.63;1.70;;;25.40;81.00;;;;;;6247348;23;20020;-62
2023/06/27 12:23:27;;;;;;;9.18;1.73;;;25.10;80.90;;;;;;6247358;23;20020;-62
2023/06/27 12:25:54;;;;;;;6.38;1.15;;;25.20;80.50;;;;;;6246748;23;20024;-62
2023/06/27 12:28:23;;;;;;;3.40;1.65;;;25.00;80.70;;;;;;6247325;23;20369;-62
2023/06/27 12:30:50;;;;;;;5.32;1.52;;;25.00;80.50;;;;;;6245205;23;20052;-62
2023/06/27 12:33:17;;;;;;;3.55;1.23;;;25.00;80.10;;;;;;6245104;23;20454;-62
2023/06/27 12:35:45;;;;;;;5.78;1.60;;;24.70;79.80;;;;;;6247041;23;20472;-62
2023/06/27 12:38:12;;;;;;;3.42;1.00;;;24.60;80.70;;;;;;6245358;23;20031;-61
2023/06/27 12:40:39;;;;;;;5.60;1.30;;;24.50;81.20;;;;;;6245870;23;20020;-61
2023/06/27 12:43:06;;;;;;;7.32;1.27;;;24.80;80.60;;;;;;6245251;23;20357;-61
2023/06/27 12:45:33;;;;;;;5.22;1.30;;;24.70;79.60;;;;;;6245870;23;20458;-62
2023/06/27 12:48:00;;;;;;;9.48;2.20;;;25.00;79.70;;;;;;6247074;23;20027;-61
2023/06/27 12:50:27;;;;;;;3.75;1.05;;;25.00;79.80;;;;;;6245171;23;20024;-61
2023/06/27 12:52:56;;;;;;;6.45;0.95;;;25.30;79.90;;;;;;6246226;23;20024;-61